Time;durP1;ratioP1;P1;durP2;ratioP2;P2;SDS_P1;SDS_P2;PMS_P1;PMS_P2;Temp;Humidity;BMP_temperature;BMP_pressure;BME280_temperature;BME280_humidity;BME280_pressure;Samples;Min_cycle;Max_cycle;Signal;HPM_P1;HPM_P2
2022/09/28 00:02:07;;;;;;;6.40;3.03;;;;;;;13.75;100.00;99258.38;5026078;28;20540;-74
2022/09/28 00:04:32;;;;;;;13.90;3.97;;;;;;;13.68;100.00;99244.53;5042173;28;20551;-76
2022/09/28 00:06:59;;;;;;;4.80;3.13;;;;;;;13.57;100.00;99249.25;5036229;28;20061;-75
2022/09/28 00:09:25;;;;;;;9.13;4.22;;;;;;;12.85;100.00;99144.28;5022279;28;20780;-75
2022/09/28 00:11:52;;;;;;;8.30;4.18;;;;;;;13.60;100.00;99257.06;5038288;28;20132;-75
2022/09/28 00:14:18;;;;;;;6.47;4.22;;;;;;;13.36;100.00;99217.38;5015580;28;20069;-76
2022/09/28 00:16:44;;;;;;;7.18;3.03;;;;;;;13.52;100.00;99250.25;5024384;28;20033;-76
2022/09/28 00:19:11;;;;;;;9.00;3.70;;;;;;;12.88;100.00;99152.97;5022614;28;20504;-75
2022/09/28 00:21:38;;;;;;;8.98;3.80;;;;;;;13.49;100.00;99253.00;5019688;28;20100;-74
2022/09/28 00:24:13;;;;;;;8.30;4.68;;;;;;;12.80;100.00;99120.72;5024408;28;20073;-74
2022/09/28 00:26:41;;;;;;;10.02;3.33;;;;;;;13.47;100.00;99254.81;5023357;28;20131;-74
2022/09/28 00:29:25;;;;;;;9.40;3.88;;;;;;;12.74;100.00;99120.91;5022284;28;20041;-74
2022/09/28 00:31:52;;;;;;;8.70;3.63;;;;;;;13.26;100.00;99197.47;5020507;28;20450;-72
2022/09/28 00:34:18;;;;;;;5.82;4.03;;;;;;;13.45;100.00;99232.06;5031081;28;20030;-73
2022/09/28 00:36:45;;;;;;;6.60;4.10;;;;;;;12.78;100.00;99119.03;5038290;28;20052;-74
2022/09/28 00:39:13;;;;;;;6.45;3.85;;;;;;;13.56;100.00;99240.50;5033613;28;20052;-74
2022/09/28 00:41:39;;;;;;;9.48;3.92;;;;;;;12.82;100.00;99118.03;5033334;28;20043;-73
2022/09/28 00:44:23;;;;;;;9.02;3.25;;;;;;;13.50;100.00;99243.31;5003254;28;20160;-74
2022/09/28 00:47:02;;;;;;;5.35;2.70;;;;;;;13.29;100.00;99213.22;5020239;28;20035;-74
2022/09/28 00:49:34;;;;;;;9.02;4.03;;;;;;;13.32;100.00;99207.84;5026072;28;20462;-75
2022/09/28 00:52:00;;;;;;;7.30;3.50;;;;;;;13.35;100.00;99228.00;5041083;28;20077;-75
2022/09/28 00:54:26;;;;;;;10.60;4.85;;;;;;;12.78;100.00;99132.19;5022527;28;20041;-75
2022/09/28 00:56:51;;;;;;;10.27;3.40;;;;;;;12.77;100.00;99152.41;5018035;28;20053;-73
2022/09/28 00:59:17;;;;;;;8.52;4.40;;;;;;;12.93;100.00;99181.78;5005231;28;20195;-75
2022/09/28 01:01:43;;;;;;;7.95;4.07;;;;;;;12.41;100.00;99078.91;5024708;28;20091;-73
2022/09/28 01:04:08;;;;;;;7.32;4.22;;;;;;;11.97;100.00;98996.88;5012278;28;20080;-75
2022/09/28 01:06:36;;;;;;;5.95;3.88;;;;;;;13.21;100.00;99210.78;5006856;28;20045;-75
2022/09/28 01:09:06;;;;;;;5.95;3.72;;;;;;;13.25;100.00;99240.53;5036483;28;20060;-74
2022/09/28 01:11:34;;;;;;;7.03;3.92;;;;;;;13.18;100.00;99224.06;5029317;28;20220;-74
2022/09/28 01:14:00;;;;;;;12.57;5.05;;;;;;;13.35;100.00;99252.56;5036517;28;20059;-75
2022/09/28 01:16:30;;;;;;;12.32;4.32;;;;;;;13.36;100.00;99261.31;5030651;28;20123;-74
2022/09/28 01:19:30;;;;;;;9.23;3.80;;;;;;;13.40;100.00;99244.53;5030328;28;20048;-74
2022/09/28 01:22:22;;;;;;;6.65;4.03;;;;;;;12.74;100.00;99135.84;5013461;28;20052;-73
2022/09/28 01:24:55;;;;;;;7.43;4.65;;;;;;;13.26;100.00;99253.66;5013895;28;20588;-74
2022/09/28 01:27:35;;;;;;;6.00;3.75;;;;;;;13.18;100.00;99263.56;5013690;28;20049;-74
2022/09/28 01:30:09;;;;;;;17.00;3.97;;;;;;;13.11;100.00;99256.75;5021187;28;20049;-74
2022/09/28 01:32:49;;;;;;;8.55;5.13;;;;;;;13.19;100.00;99269.69;5021452;28;20045;-73
2022/09/28 01:35:34;;;;;;;6.93;4.45;;;;;;;12.92;100.00;99232.69;5026264;28;20049;-73
2022/09/28 01:38:07;;;;;;;10.18;5.68;;;;;;;12.78;100.00;99209.44;5011703;28;20756;-73
2022/09/28 01:40:33;;;;;;;11.80;4.70;;;;;;;13.15;100.00;99258.38;5010878;28;20033;-73
2022/09/28 01:43:07;;;;;;;8.13;4.18;;;;;;;13.18;100.00;99258.31;5008031;28;20049;-74
2022/09/28 01:45:40;;;;;;;7.20;4.30;;;;;;;12.31;100.00;99126.53;5004003;28;20441;-74
2022/09/28 01:48:09;;;;;;;;;;;;;;;12.99;100.00;99265.84;5027614;28;20049;-74
2022/09/28 01:50:39;;;;;;;10.50;5.45;;;;;;;13.02;100.00;99262.28;5027023;28;19932;-74
2022/09/28 01:53:24;;;;;;;9.27;5.18;;;;;;;12.19;100.00;99125.97;5019504;28;20042;-74
2022/09/28 01:55:58;;;;;;;9.30;4.57;;;;;;;13.08;100.00;99275.25;5014467;28;20116;-75
2022/09/28 01:58:29;;;;;;;11.73;5.85;;;;;;;12.54;100.00;99231.16;5015848;28;20037;-74
2022/09/28 02:01:11;;;;;;;8.85;5.63;;;;;;;12.27;100.00;99199.41;5015402;28;20064;-74
2022/09/28 02:04:06;;;;;;;9.02;5.82;;;;;;;12.73;100.00;99282.38;5018946;28;20046;-74
2022/09/28 02:06:55;;;;;;;9.73;6.05;;;;;;;12.78;100.00;99283.13;5027961;28;20048;-74
2022/09/28 02:09:54;;;;;;;10.60;6.35;;;;;;;11.97;100.00;99135.34;5047146;28;20037;-74
2022/09/28 02:12:29;;;;;;;9.38;5.88;;;;;;;12.58;100.00;99232.78;5041799;28;20049;-73
2022/09/28 02:15:03;;;;;;;11.00;6.47;;;;;;;12.68;100.00;99282.50;5022788;28;20155;-73
2022/09/28 02:17:28;;;;;;;11.80;6.78;;;;;;;12.67;100.00;99293.94;5029107;28;20034;-73
2022/09/28 02:19:54;;;;;;;9.30;6.43;;;;;;;11.82;100.00;99141.81;5026954;28;20052;-73
2022/09/28 02:22:41;;;;;;;9.80;7.13;;;;;;;12.59;100.00;99292.41;5013946;28;20048;-73
2022/09/28 02:25:16;;;;;;;9.43;5.90;;;;;;;12.66;100.00;99310.63;5032231;28;20409;-73
2022/09/28 02:27:47;;;;;;;9.73;5.55;;;;;;;12.66;100.00;99317.66;5021046;28;20135;-72
2022/09/28 02:30:13;;;;;;;16.00;7.47;;;;;;;12.64;100.00;99307.19;5031112;28;20052;-73
2022/09/28 02:32:43;;;;;;;16.42;7.63;;;;;;;12.56;100.00;99314.41;5018744;28;20459;-75
2022/09/28 02:35:15;;;;;;;10.30;7.75;;;;;;;12.51;100.00;99307.53;5027874;28;20527;-75
2022/09/28 02:37:42;;;;;;;16.27;8.02;;;;;;;12.49;100.00;99297.03;5021780;28;20037;-74
2022/09/28 02:40:30;;;;;;;13.90;8.52;;;;;;;11.53;100.00;99156.56;5023869;28;20473;-74
2022/09/28 02:42:55;;;;;;;11.60;8.00;;;;;;;12.48;100.00;99299.69;5015247;28;20049;-76
2022/09/28 02:45:21;;;;;;;12.10;8.63;;;;;;;12.47;100.00;99296.22;5028896;28;20072;-73
2022/09/28 02:48:17;;;;;;;13.60;9.80;;;;;;;12.27;100.00;99302.00;5034909;28;20045;-74
2022/09/28 02:50:59;;;;;;;15.77;10.32;;;;;;;11.39;100.00;99158.66;5025330;28;20593;-73
2022/09/28 02:53:39;;;;;;;19.92;11.43;;;;;;;12.32;100.00;99313.25;5028237;28;20038;-75
2022/09/28 02:56:43;;;;;;;15.10;12.25;;;;;;;12.15;100.00;99302.28;5027913;28;20068;-73
2022/09/28 02:59:14;;;;;;;16.08;12.75;;;;;;;12.17;100.00;99303.09;5029290;28;20578;-73
2022/09/28 03:02:07;;;;;;;16.35;12.85;;;;;;;12.34;100.00;99297.41;5022394;28;20084;-73
2022/09/28 03:04:33;;;;;;;17.88;13.30;;;;;;;12.02;100.00;99297.31;5019707;28;20076;-74
2022/09/28 03:07:27;;;;;;;16.98;14.40;;;;;;;12.10;100.00;99298.91;5033046;28;20093;-74
2022/09/28 03:10:28;;;;;;;18.23;14.35;;;;;;;12.05;100.00;99288.50;5033266;28;20044;-73
2022/09/28 03:12:55;;;;;;;20.98;15.80;;;;;;;11.32;100.00;99157.06;5013883;28;20061;-73
2022/09/28 03:15:32;;;;;;;25.83;15.07;;;;;;;11.46;100.00;99189.13;5008400;28;20107;-73
2022/09/28 03:17:58;;;;;;;19.27;14.80;;;;;;;12.14;100.00;99305.81;5025658;28;20532;-72
2022/09/28 03:20:25;;;;;;;20.95;15.00;;;;;;;11.94;100.00;99267.75;5032857;28;20505;-73
2022/09/28 03:22:51;;;;;;;21.90;15.15;;;;;;;12.13;100.00;99304.97;5016052;28;20045;-73
2022/09/28 03:25:17;;;;;;;22.15;14.60;;;;;;;11.29;100.00;99167.66;5030413;28;20029;-73
2022/09/28 03:27:43;;;;;;;22.95;17.15;;;;;;;11.78;100.00;99303.13;5022495;28;20553;-73
2022/09/28 03:30:09;;;;;;;22.27;16.45;;;;;;;11.73;100.00;99253.31;5010769;28;20052;-74
2022/09/28 03:32:34;;;;;;;25.10;18.08;;;;;;;11.22;100.00;99179.19;5018607;28;20799;-73
2022/09/28 03:35:00;;;;;;;25.50;17.80;;;;;;;11.66;100.00;99264.88;5027836;28;20053;-74
2022/09/28 03:37:26;;;;;;;26.50;17.63;;;;;;;11.51;100.00;99221.41;5009224;28;20457;-73
2022/09/28 03:39:52;;;;;;;30.95;18.15;;;;;;;11.90;100.00;99323.06;5027118;28;20053;-74
2022/09/28 03:42:17;;;;;;;30.45;16.85;;;;;;;11.98;100.00;99300.06;5026420;28;20041;-76
2022/09/28 03:44:43;;;;;;;25.55;17.15;;;;;;;12.02;100.00;99328.88;5035934;28;20052;-72
2022/09/28 03:47:09;;;;;;;28.35;17.92;;;;;;;12.02;100.00;99341.16;5019440;28;20357;-72
2022/09/28 03:49:34;;;;;;;24.08;15.90;;;;;;;11.19;100.00;99208.97;5036964;28;20087;-74
2022/09/28 03:52:00;;;;;;;25.55;17.05;;;;;;;11.98;100.00;99324.56;5011207;28;20049;-75
2022/09/28 03:54:26;;;;;;;21.90;14.90;;;;;;;10.95;100.00;99163.13;5023473;28;20050;-74
2022/09/28 03:56:51;;;;;;;27.55;18.58;;;;;;;11.34;100.00;99219.16;5022725;28;20041;-74
2022/09/28 03:59:17;;;;;;;28.05;18.85;;;;;;;11.07;100.00;99183.00;5029544;28;20116;-74
2022/09/28 04:01:42;;;;;;;31.00;19.20;;;;;;;11.86;100.00;99313.47;5036548;28;20465;-75
2022/09/28 04:04:12;;;;;;;27.83;17.33;;;;;;;11.26;100.00;99209.72;5030131;28;20711;-76
2022/09/28 04:06:37;;;;;;;26.35;18.70;;;;;;;11.24;100.00;99227.25;5031013;28;20132;-75
2022/09/28 04:09:03;;;;;;;28.65;19.25;;;;;;;12.05;100.00;99348.97;5010628;28;20485;-75
2022/09/28 04:11:30;;;;;;;27.17;17.95;;;;;;;12.17;100.00;99353.06;5029587;28;20038;-75
2022/09/28 04:13:55;;;;;;;27.88;19.92;;;;;;;12.20;100.00;99347.75;5037460;28;20033;-76
2022/09/28 04:16:21;;;;;;;27.25;18.63;;;;;;;11.44;100.00;99243.44;5025156;28;20469;-74
2022/09/28 04:18:47;;;;;;;31.98;22.15;;;;;;;11.68;100.00;99312.09;5038566;28;20087;-74
2022/09/28 04:21:15;;;;;;;26.52;19.50;;;;;;;11.90;100.00;99325.69;5030821;28;20108;-75
2022/09/28 04:23:41;;;;;;;31.10;20.73;;;;;;;12.00;100.00;99333.28;5033932;28;20161;-75
2022/09/28 04:26:23;;;;;;;32.88;19.23;;;;;;;11.57;100.00;99247.53;5044741;28;20473;-74
2022/09/28 04:31:48;;;;;;;29.55;17.35;;;;;;;12.23;100.00;99345.06;5034300;28;20045;-74
2022/09/28 04:34:16;;;;;;;27.70;17.67;;;;;;;11.32;100.00;99202.56;5014678;28;20185;-76
2022/09/28 04:36:43;;;;;;;20.75;14.15;;;;;;;12.09;100.00;99331.38;5026259;28;20050;-73
2022/09/28 04:39:13;;;;;;;24.38;18.88;;;;;;;11.36;100.00;99201.59;5017365;28;20053;-75
2022/09/28 04:41:39;;;;;;;22.38;16.00;;;;;;;12.17;100.00;99351.31;5020189;28;20122;-73
2022/09/28 04:44:06;;;;;;;24.23;15.90;;;;;;;12.16;100.00;99352.22;5007366;28;20144;-75
2022/09/28 04:46:31;;;;;;;21.65;16.50;;;;;;;11.45;100.00;99212.78;5025708;28;20060;-75
2022/09/28 04:48:57;;;;;;;32.33;15.98;;;;;;;12.11;100.00;99332.19;5030252;28;20709;-75
2022/09/28 04:51:23;;;;;;;23.20;17.38;;;;;;;12.09;100.00;99332.22;5028029;28;20057;-76
2022/09/28 04:53:48;;;;;;;24.98;16.30;;;;;;;11.88;100.00;99304.66;5027269;28;20076;-74
2022/09/28 04:56:15;;;;;;;26.60;15.85;;;;;;;11.56;100.00;99242.31;5009225;28;20477;-74
2022/09/28 04:58:41;;;;;;;23.30;16.65;;;;;;;12.03;100.00;99322.72;5016253;28;20038;-74
2022/09/28 05:01:10;;;;;;;27.42;18.40;;;;;;;11.42;100.00;99218.97;5005782;28;20088;-74
2022/09/28 05:03:36;;;;;;;35.60;17.48;;;;;;;11.98;100.00;99331.59;5034467;28;20045;-75
2022/09/28 05:06:02;;;;;;;22.95;15.57;;;;;;;12.14;100.00;99356.66;5020878;28;20503;-75
2022/09/28 05:08:28;;;;;;;22.60;16.38;;;;;;;12.29;100.00;99388.75;5040671;28;20048;-74
2022/09/28 05:11:03;;;;;;;22.58;16.92;;;;;;;12.10;100.00;99352.34;5028280;28;20108;-73
2022/09/28 05:13:30;;;;;;;27.95;17.08;;;;;;;12.43;100.00;99395.44;5016579;28;20056;-74
2022/09/28 05:15:57;;;;;;;20.20;16.10;;;;;;;11.64;100.00;99257.91;5027252;28;20049;-74
2022/09/28 05:18:23;;;;;;;25.15;17.35;;;;;;;12.63;100.00;99396.69;5034990;28;20044;-74
2022/09/28 05:20:49;;;;;;;28.45;18.30;;;;;;;12.74;100.00;99406.97;5017577;28;20124;-73
2022/09/28 05:23:15;;;;;;;26.23;17.00;;;;;;;12.35;100.00;99336.00;5034268;28;20161;-75
2022/09/28 05:25:42;;;;;;;29.38;19.17;;;;;;;12.49;100.00;99370.72;5024642;28;20073;-75
2022/09/28 05:28:07;;;;;;;26.98;18.65;;;;;;;11.63;100.00;99246.53;5023607;28;20030;-75
2022/09/28 05:30:34;;;;;;;29.23;19.65;;;;;;;12.12;100.00;99297.97;5002042;28;20057;-74
2022/09/28 05:33:00;;;;;;;30.40;20.17;;;;;;;12.51;100.00;99397.88;5004298;28;20595;-74
2022/09/28 05:35:25;;;;;;;29.60;20.23;;;;;;;12.58;100.00;99402.06;5022671;28;20065;-73
2022/09/28 05:37:51;;;;;;;38.83;21.10;;;;;;;12.67;100.00;99383.41;5023833;28;20486;-74
2022/09/28 05:40:17;;;;;;;30.45;19.98;;;;;;;12.51;100.00;99382.06;5006959;28;20447;-74
2022/09/28 05:42:43;;;;;;;31.20;19.70;;;;;;;12.83;100.00;99401.44;5020074;28;20067;-73
2022/09/28 05:45:09;;;;;;;34.65;21.17;;;;;;;12.65;100.00;99371.22;5030613;28;20053;-73
2022/09/28 05:47:45;;;;;;;29.85;18.30;;;;;;;12.15;100.00;99295.28;5022293;28;20052;-77
2022/09/28 05:50:11;;;;;;;30.95;17.83;;;;;;;13.00;100.00;99407.16;5020552;28;20584;-78
2022/09/28 05:52:37;;;;;;;26.70;18.02;;;;;;;12.86;100.00;99372.44;5029209;28;20044;-79
2022/09/28 05:55:04;;;;;;;27.33;17.83;;;;;;;12.32;100.00;99288.72;5023656;28;21054;-76
2022/09/28 05:57:30;;;;;;;19.27;12.77;;;;;;;14.11;100.00;99417.22;5022060;28;20172;-74
2022/09/28 05:59:55;;;;;;;17.55;11.60;;;;;;;15.22;100.00;99395.13;5022425;28;20138;-69
2022/09/28 06:02:21;;;;;;;32.33;20.45;;;;;;;14.13;98.71;99386.41;5014343;28;21861;-75
2022/09/28 06:04:48;;;;;;;20.98;12.23;;;;;;;15.15;100.00;99246.53;5010360;28;20052;-73
2022/09/28 06:07:14;;;;;;;25.70;18.63;;;;;;;16.07;92.90;99407.00;5007825;28;20136;-75
2022/09/28 06:09:39;;;;;;;23.02;15.50;;;;;;;15.91;93.47;99412.03;5010788;28;20041;-72
2022/09/28 06:12:05;;;;;;;27.65;15.45;;;;;;;16.77;87.60;99344.16;5020609;28;20046;-70
2022/09/28 06:14:30;;;;;;;23.38;13.95;;;;;;;16.61;89.94;99386.31;5012024;28;20055;-71
2022/09/28 06:16:56;;;;;;;24.70;13.05;;;;;;;16.66;90.96;99416.13;5002026;28;20045;-69
2022/09/28 06:19:21;;;;;;;19.42;11.02;;;;;;;15.72;89.18;99232.00;5028099;28;20030;-71
2022/09/28 06:21:46;;;;;;;18.90;13.48;;;;;;;16.93;88.30;99419.47;5004947;28;20530;-70
2022/09/28 06:24:12;;;;;;;18.55;11.40;;;;;;;15.34;90.39;99320.72;4990241;28;20461;-70
2022/09/28 06:26:37;;;;;;;18.70;10.77;;;;;;;16.70;89.68;99380.66;5006498;28;20049;-69
2022/09/28 06:29:03;;;;;;;23.23;13.15;;;;;;;16.03;91.10;99402.75;5009586;28;20090;-70
2022/09/28 06:31:28;;;;;;;18.42;11.50;;;;;;;16.98;86.99;99395.41;5003634;28;20065;-70
2022/09/28 06:33:54;;;;;;;16.52;10.48;;;;;;;16.17;87.55;99307.78;5008105;28;20049;-69
2022/09/28 06:36:21;;;;;;;21.00;10.85;;;;;;;17.14;84.83;99425.66;5003092;28;20077;-71
2022/09/28 06:38:46;;;;;;;19.52;10.73;;;;;;;16.49;85.80;99432.72;5004164;28;20124;-71
2022/09/28 06:41:12;;;;;;;14.00;9.43;;;;;;;17.20;84.45;99425.38;5000911;28;20038;-70
2022/09/28 06:43:40;;;;;;;14.75;10.63;;;;;;;17.35;85.48;99437.13;5014955;28;20489;-70
2022/09/28 06:46:08;;;;;;;15.43;10.48;;;;;;;16.85;86.27;99413.63;5017027;28;20030;-70
2022/09/28 06:48:34;;;;;;;13.27;10.18;;;;;;;16.01;87.72;99341.97;5003550;28;20042;-70
2022/09/28 06:51:01;;;;;;;14.77;8.82;;;;;;;16.81;87.32;99418.19;5004660;28;20077;-70
2022/09/28 06:53:27;;;;;;;14.10;10.43;;;;;;;16.77;86.21;99418.34;5016260;28;20044;-70
2022/09/28 06:55:55;;;;;;;17.98;9.40;;;;;;;17.11;85.07;99446.97;5023196;28;20029;-70
2022/09/28 06:58:21;;;;;;;12.38;9.05;;;;;;;16.98;83.06;99435.19;5002359;28;20117;-72
2022/09/28 07:00:49;;;;;;;13.60;8.93;;;;;;;16.50;83.47;99299.38;5001343;28;20192;-71
2022/09/28 07:03:17;;;;;;;12.27;8.07;;;;;;;16.80;83.87;99317.56;5002816;28;20112;-70
2022/09/28 07:05:47;;;;;;;13.07;8.27;;;;;;;16.77;86.77;99443.06;4988134;28;20070;-71
2022/09/28 07:08:13;;;;;;;8.77;6.20;;;;;;;16.53;85.33;99319.56;5001140;28;20117;-70
2022/09/28 07:10:47;;;;;;;8.45;5.68;;;;;;;17.38;83.23;99417.56;5012992;28;20044;-71
2022/09/28 07:13:12;;;;;;;;;;;;;;;17.19;85.30;99444.00;5018674;28;20057;-70
2022/09/28 07:15:39;;;;;;;9.73;5.45;;;;;;;17.15;84.45;99445.91;5012514;28;20643;-71
2022/09/28 07:18:06;;;;;;;9.40;5.28;;;;;;;17.98;82.57;99454.69;5020882;28;20038;-70
2022/09/28 07:20:35;;;;;;;7.82;5.22;;;;;;;17.46;83.27;99431.31;5008671;28;20060;-71
2022/09/28 07:23:04;;;;;;;7.95;5.20;;;;;;;17.58;83.90;99467.91;5013169;28;20159;-70
2022/09/28 07:25:31;;;;;;;6.30;4.40;;;;;;;17.67;82.87;99438.31;5009606;28;20038;-70
2022/09/28 07:28:02;;;;;;;10.88;4.93;;;;;;;17.00;83.55;99406.81;5018861;28;20053;-71
2022/09/28 07:30:32;;;;;;;6.25;3.78;;;;;;;17.91;81.14;99425.78;5030716;28;20057;-71
2022/09/28 07:32:59;;;;;;;6.07;4.15;;;;;;;18.01;81.60;99468.69;5019000;28;20048;-71
2022/09/28 07:35:25;;;;;;;6.65;3.80;;;;;;;17.88;82.31;99447.13;5015525;28;20049;-69
2022/09/28 07:38:05;;;;;;;9.68;4.20;;;;;;;17.94;81.65;99427.44;5019529;28;20151;-70
2022/09/28 07:43:19;;;;;;;10.75;4.13;;;;;;;17.25;84.25;99447.22;5036547;28;20045;-70
2022/09/28 07:45:46;;;;;;;8.65;4.38;;;;;;;16.96;83.23;99346.91;5022293;28;20169;-71
2022/09/28 07:48:14;;;;;;;12.50;4.53;;;;;;;17.82;82.75;99471.31;5017852;28;20046;-71
2022/09/28 07:50:51;;;;;;;8.25;4.28;;;;;;;18.09;81.34;99460.38;5035426;28;20049;-69
2022/09/28 07:53:19;;;;;;;9.88;4.22;;;;;;;17.67;82.24;99456.03;5038374;28;20478;-71
2022/09/28 07:55:56;;;;;;;7.25;3.42;;;;;;;17.78;81.62;99443.16;5008350;28;20147;-72
2022/09/28 07:58:22;;;;;;;5.80;3.83;;;;;;;17.41;84.19;99473.97;5020865;28;20091;-71
2022/09/28 08:00:49;;;;;;;11.27;4.22;;;;;;;17.46;84.94;99473.75;5011262;28;20045;-71
2022/09/28 08:03:21;;;;;;;6.10;4.10;;;;;;;17.86;83.50;99464.06;5018316;28;20543;-69
2022/09/28 08:05:46;;;;;;;25.23;3.60;;;;;;;17.97;82.14;99477.72;5009829;28;20053;-70
2022/09/28 08:08:13;;;;;;;13.98;3.95;;;;;;;17.06;83.25;99353.53;5016414;28;20524;-71
2022/09/28 08:10:41;;;;;;;9.32;4.97;;;;;;;17.52;83.54;99381.53;5010668;28;20037;-70
2022/09/28 08:13:07;;;;;;;10.30;4.22;;;;;;;17.39;83.26;99409.50;5012594;28;20540;-72
2022/09/28 08:15:37;;;;;;;9.10;3.35;;;;;;;17.32;82.97;99356.81;5027845;28;20045;-79
2022/09/28 08:18:06;;;;;;;10.45;5.82;;;;;;;18.14;82.60;99475.16;5024195;28;20419;-76
2022/09/28 08:23:17;;;;;;;20.52;8.43;;;;;;;17.49;83.59;99360.44;5029962;28;20106;-76
2022/09/28 08:25:51;;;;;;;11.52;4.88;;;;;;;18.17;82.23;99466.19;5031954;28;20112;-75
2022/09/28 08:28:16;;;;;;;17.08;9.95;;;;;;;17.50;81.84;99367.47;5031474;28;20071;-76
2022/09/28 08:30:44;;;;;;;14.90;8.77;;;;;;;18.35;83.07;99481.28;5035561;28;20160;-75
2022/09/28 08:33:10;;;;;;;12.38;6.30;;;;;;;17.72;81.14;99361.16;5030251;28;20053;-75
2022/09/28 08:35:36;;;;;;;14.82;10.80;;;;;;;18.58;81.45;99484.63;5028571;28;20041;-75
2022/09/28 08:38:02;;;;;;;18.65;11.88;;;;;;;18.67;80.48;99454.94;5006201;28;20099;-74
2022/09/28 08:40:32;;;;;;;17.13;8.60;;;;;;;18.39;81.07;99410.25;5017165;28;20389;-73
2022/09/28 08:43:03;;;;;;;16.27;10.32;;;;;;;18.68;81.60;99477.06;5013796;28;20418;-74
2022/09/28 08:45:34;;;;;;;10.75;6.68;;;;;;;18.07;81.64;99394.06;5030880;28;20046;-76
2022/09/28 08:51:08;;;;;;;;;;;;;;;18.72;81.91;99473.31;5015337;28;20543;-73
2022/09/28 08:53:47;;;;;;;18.58;11.35;;;;;;;18.73;81.07;99467.06;5026690;28;19921;-76
2022/09/28 08:56:40;;;;;;;12.52;8.77;;;;;;;18.82;80.71;99471.94;5002607;28;20045;-75
2022/09/28 08:59:13;;;;;;;16.05;8.70;;;;;;;18.83;80.55;99471.03;5009147;28;20048;-76
2022/09/28 09:01:47;;;;;;;15.43;9.70;;;;;;;18.90;80.59;99455.66;5001602;28;20108;-74
2022/09/28 09:04:12;;;;;;;18.58;8.90;;;;;;;18.51;80.34;99372.47;5024471;28;20033;-74
2022/09/28 09:06:50;;;;;;;14.45;9.70;;;;;;;18.92;79.76;99475.91;5017781;28;20041;-75
2022/09/28 09:09:30;;;;;;;16.90;12.43;;;;;;;19.04;79.51;99473.56;5010687;28;20776;-76
2022/09/28 09:12:30;;;;;;;14.15;7.32;;;;;;;19.00;80.04;99464.88;5017513;28;20053;-77
2022/09/28 09:15:17;;;;;;;10.02;7.15;;;;;;;19.18;79.35;99471.94;5020215;28;20112;-76
2022/09/28 09:17:49;;;;;;;14.52;6.85;;;;;;;19.18;78.89;99465.75;4994213;28;20058;-79
2022/09/28 09:20:24;;;;;;;16.52;11.65;;;;;;;18.71;78.00;99370.63;5011450;28;20048;-80
2022/09/28 09:23:03;;;;;;;17.50;13.20;;;;;;;18.98;78.82;99392.31;4993890;28;20045;-76
2022/09/28 09:25:42;;;;;;;11.45;8.68;;;;;;;19.17;78.10;99429.44;5004646;28;20026;-79
2022/09/28 09:28:43;;;;;;;9.77;3.28;;;;;;;19.33;76.98;99456.13;5002911;28;20050;-77
2022/09/28 09:31:18;;;;;;;13.70;8.07;;;;;;;19.40;77.50;99458.38;4943692;28;20058;-76
2022/09/28 09:34:11;;;;;;;5.75;2.42;;;;;;;19.32;77.57;99457.94;5006934;28;20046;-74
2022/09/28 09:37:00;;;;;;;6.55;3.47;;;;;;;18.65;76.45;99342.53;4997785;28;20085;-79
2022/09/28 09:39:51;;;;;;;5.95;2.97;;;;;;;19.49;75.27;99464.19;5002827;28;20125;-74
2022/09/28 09:42:22;;;;;;;15.20;9.90;;;;;;;19.71;75.59;99464.78;5011464;28;20073;-76
2022/09/28 09:45:13;;;;;;;16.08;10.77;;;;;;;19.18;74.92;99338.97;4999037;28;20069;-75
2022/09/28 09:47:52;;;;;;;11.10;5.68;;;;;;;19.99;75.58;99456.22;5007748;28;20050;-74
2022/09/28 09:50:24;;;;;;;9.05;4.78;;;;;;;20.07;74.55;99453.13;5004786;28;20158;-76
2022/09/28 09:52:56;;;;;;;22.25;12.77;;;;;;;19.75;75.38;99386.50;5000457;28;20113;-74
2022/09/28 09:55:23;;;;;;;15.98;5.90;;;;;;;20.26;74.20;99450.31;4989190;28;20034;-74
2022/09/28 09:58:08;;;;;;;23.92;8.60;;;;;;;20.25;73.21;99421.94;4991158;28;20046;-75
2022/09/28 10:00:38;;;;;;;11.23;7.93;;;;;;;20.29;73.71;99433.28;4997484;28;20073;-74
2022/09/28 10:03:04;;;;;;;8.52;4.22;;;;;;;20.45;73.26;99456.31;5013262;28;20173;-74
2022/09/28 10:05:31;;;;;;;6.10;2.58;;;;;;;19.75;71.13;99343.91;5003389;28;20189;-75
2022/09/28 10:08:16;;;;;;;22.25;16.88;;;;;;;20.59;72.72;99460.06;4991591;28;20494;-75
2022/09/28 10:11:01;;;;;;;14.88;7.15;;;;;;;20.58;72.04;99451.19;4995591;28;20045;-76
2022/09/28 10:13:28;;;;;;;30.80;12.02;;;;;;;20.42;72.25;99403.19;4993068;28;20045;-73
2022/09/28 10:15:54;;;;;;;18.00;13.85;;;;;;;20.70;71.88;99449.66;5003938;28;20038;-74
2022/09/28 10:18:20;;;;;;;22.60;12.32;;;;;;;20.28;71.49;99363.16;5000084;28;20042;-75
2022/09/28 10:20:46;;;;;;;15.30;10.27;;;;;;;20.80;69.60;99437.50;4992746;28;20120;-74
2022/09/28 10:23:21;;;;;;;15.40;9.25;;;;;;;20.39;70.55;99346.53;5029127;28;20493;-74
2022/09/28 10:25:50;;;;;;;11.20;4.55;;;;;;;21.16;68.83;99454.09;5018174;28;20037;-75
2022/09/28 10:28:28;;;;;;;13.50;3.92;;;;;;;21.02;68.26;99444.22;5022413;28;20465;-73
2022/09/28 10:30:54;;;;;;;7.38;2.83;;;;;;;21.24;67.14;99444.69;5022220;28;20140;-74
2022/09/28 10:33:27;;;;;;;4.07;2.22;;;;;;;21.69;67.48;99450.88;5020156;28;20051;-75
2022/09/28 10:35:53;;;;;;;9.57;3.05;;;;;;;21.52;67.45;99426.16;5024373;28;20136;-75
2022/09/28 10:38:18;;;;;;;3.70;2.10;;;;;;;21.90;64.71;99451.38;5019525;28;20129;-74
2022/09/28 10:40:50;;;;;;;7.95;4.93;;;;;;;22.08;67.16;99462.72;5027571;28;20054;-74
2022/09/28 10:43:41;;;;;;;5.75;4.13;;;;;;;22.26;65.45;99446.50;5022378;28;20029;-75
2022/09/28 10:46:09;;;;;;;5.70;2.25;;;;;;;21.42;63.24;99319.13;5039987;28;20072;-74
2022/09/28 10:48:56;;;;;;;6.18;3.20;;;;;;;22.39;61.81;99443.91;5023741;28;20111;-76
2022/09/28 10:51:40;;;;;;;7.22;4.72;;;;;;;22.49;63.93;99453.06;5010277;28;20045;-75
2022/09/28 10:54:15;;;;;;;6.10;4.05;;;;;;;22.41;62.99;99453.56;5028438;28;20084;-74
2022/09/28 10:56:41;;;;;;;5.40;4.00;;;;;;;22.41;62.92;99450.03;5031598;28;20591;-78
2022/09/28 10:59:28;;;;;;;8.73;5.20;;;;;;;22.67;63.18;99453.69;5017861;28;20045;-74
2022/09/28 11:02:19;;;;;;;8.02;5.75;;;;;;;22.55;62.25;99458.88;5032101;28;20389;-75
2022/09/28 11:04:52;;;;;;;5.68;2.72;;;;;;;22.43;60.68;99437.41;5021458;28;20041;-77
2022/09/28 11:07:20;;;;;;;9.70;4.43;;;;;;;22.14;59.00;99359.94;5029546;28;20049;-76
2022/09/28 11:09:48;;;;;;;8.45;4.25;;;;;;;22.63;59.08;99436.13;5010451;28;20050;-79
2022/09/28 11:12:18;;;;;;;7.80;5.28;;;;;;;22.43;56.87;99438.28;5026938;28;20099;-79
2022/09/28 11:14:45;;;;;;;11.18;2.33;;;;;;;22.25;57.55;99418.94;5025427;28;20060;-79
2022/09/28 11:17:32;;;;;;;17.70;3.85;;;;;;;22.60;57.84;99445.19;5013524;28;20065;-76
2022/09/28 11:20:00;;;;;;;8.32;2.47;;;;;;;21.83;56.93;99327.19;5022694;28;20534;-75
2022/09/28 11:22:30;;;;;;;6.13;3.05;;;;;;;22.66;57.87;99438.56;5024728;28;20132;-75
2022/09/28 11:25:27;;;;;;;4.80;2.63;;;;;;;22.69;56.16;99447.28;5015633;28;20584;-75
2022/09/28 11:27:52;;;;;;;21.08;16.50;;;;;;;22.54;58.58;99445.59;5017743;28;20053;-77
2022/09/28 11:30:23;;;;;;;20.25;17.52;;;;;;;22.51;58.18;99446.66;5020024;28;20568;-79
2022/09/28 11:32:52;;;;;;;13.90;11.60;;;;;;;21.88;60.83;99316.22;5021108;28;20133;-84
2022/09/28 11:35:21;;;;;;;8.07;3.85;;;;;;;22.67;56.61;99410.88;5017880;28;20140;-74
2022/09/28 11:38:11;;;;;;;11.02;7.82;;;;;;;22.50;57.45;99442.28;5030708;28;20025;-75
2022/09/28 11:40:45;;;;;;;7.55;5.45;;;;;;;22.52;58.61;99429.66;5034887;28;20159;-70
2022/09/28 11:43:25;;;;;;;14.23;10.30;;;;;;;21.77;59.77;99305.34;5039849;28;20029;-85
2022/09/28 11:46:07;;;;;;;16.35;10.02;;;;;;;22.53;58.60;99423.34;5003895;28;20050;-78
2022/09/28 11:48:58;;;;;;;8.45;5.57;;;;;;;22.63;56.05;99425.41;5032747;28;20044;-79
2022/09/28 11:51:35;;;;;;;6.15;3.92;;;;;;;22.46;57.97;99392.63;5019322;28;20266;-78
2022/09/28 11:54:16;;;;;;;8.98;4.78;;;;;;;22.48;58.44;99429.97;5031252;28;20045;-74